Time;durP1;ratioP1;P1;durP2;ratioP2;P2;SDS_P1;SDS_P2;PMS_P1;PMS_P2;Temp;Humidity;BMP_temperature;BMP_pressure;BME280_temperature;BME280_humidity;BME280_pressure;Samples;Min_cycle;Max_cycle;Signal;HPM_P1;HPM_P2
2023/01/29 00:01:08;;;;;;;3.72;2.22;;;2.20;99.90;;;;;;10191292;28;20039;-73
2023/01/29 00:05:59;;;;;;;5.60;2.50;;;2.20;99.90;;;;;;10185704;28;20027;-70
2023/01/29 00:10:50;;;;;;;4.35;2.72;;;2.10;99.90;;;;;;10186799;28;20032;-71
2023/01/29 00:15:40;;;;;;;4.82;2.50;;;2.10;99.90;;;;;;10192291;28;20183;-71
2023/01/29 00:20:32;;;;;;;5.05;2.90;;;2.10;99.90;;;;;;10185100;28;20043;-73
2023/01/29 00:25:23;;;;;;;6.30;3.10;;;2.00;99.90;;;;;;10184464;28;20021;-71
2023/01/29 00:30:17;;;;;;;5.18;2.85;;;2.00;99.90;;;;;;10184393;28;20512;-73
2023/01/29 00:35:08;;;;;;;4.63;2.47;;;2.00;99.90;;;;;;10183510;28;20043;-72
2023/01/29 00:39:59;;;;;;;4.47;2.70;;;2.00;99.90;;;;;;10183952;28;20073;-72
2023/01/29 00:44:58;;;;;;;6.97;2.85;;;1.80;99.90;;;;;;10182868;28;20050;-72
2023/01/29 00:49:49;;;;;;;4.18;2.65;;;1.80;99.90;;;;;;10182783;28;20324;-70
2023/01/29 00:54:39;;;;;;;4.70;2.30;;;1.70;99.90;;;;;;10195223;28;20020;-70
2023/01/29 00:59:30;;;;;;;4.15;2.45;;;1.70;99.90;;;;;;10183428;28;20039;-71
2023/01/29 01:04:21;;;;;;;4.60;2.85;;;1.60;99.90;;;;;;10182417;28;20024;-72
2023/01/29 01:14:21;;;;;;;7.40;2.65;;;1.70;99.90;;;;;;10182130;28;20217;-69
2023/01/29 01:19:12;;;;;;;6.80;2.63;;;1.70;99.90;;;;;;10180454;28;20280;-73
2023/01/29 01:24:04;;;;;;;4.78;2.78;;;1.80;99.90;;;;;;10181671;28;20480;-73
2023/01/29 01:28:55;;;;;;;5.70;2.63;;;1.80;99.90;;;;;;10181889;28;20024;-73
2023/01/29 01:33:45;;;;;;;4.50;2.67;;;1.80;99.90;;;;;;10181882;28;20541;-73
2023/01/29 01:38:43;;;;;;;4.68;2.28;;;1.80;99.90;;;;;;10186173;28;20020;-73
2023/01/29 01:43:54;;;;;;;8.23;2.85;;;1.80;99.90;;;;;;10181091;28;20444;-73
2023/01/29 01:48:49;;;;;;;5.93;2.40;;;1.90;99.90;;;;;;10180688;28;20036;-71
2023/01/29 01:54:03;;;;;;;5.68;2.78;;;1.90;99.90;;;;;;10188204;28;20028;-72
2023/01/29 01:58:56;;;;;;;6.18;2.40;;;1.80;99.90;;;;;;10181828;28;20036;-72
2023/01/29 02:09:39;;;;;;;4.88;2.63;;;1.80;99.90;;;;;;10185736;28;20563;-72
2023/01/29 02:14:31;;;;;;;6.47;3.28;;;1.80;99.90;;;;;;10183301;28;20650;-70
2023/01/29 02:20:04;;;;;;;4.82;2.10;;;1.80;99.90;;;;;;10177998;28;20024;-69
2023/01/29 02:25:19;;;;;;;5.70;2.63;;;1.80;99.90;;;;;;10164582;28;20532;-69
2023/01/29 02:30:22;;;;;;;6.53;3.17;;;1.80;99.90;;;;;;10179190;28;20426;-70
2023/01/29 02:35:27;;;;;;;8.85;2.80;;;1.80;99.90;;;;;;10177369;28;20020;-70
2023/01/29 02:40:45;;;;;;;7.15;3.22;;;1.80;99.90;;;;;;10162568;28;20078;-70
2023/01/29 02:45:45;;;;;;;3.88;3.03;;;1.80;99.90;;;;;;10159714;28;20047;-71
2023/01/29 02:50:43;;;;;;;5.28;2.55;;;1.70;99.90;;;;;;10177153;28;20067;-72
2023/01/29 02:55:58;;;;;;;5.38;2.78;;;1.70;99.90;;;;;;10181368;28;20078;-71
2023/01/29 03:00:51;;;;;;;6.63;2.97;;;1.70;99.90;;;;;;10187447;28;20128;-69
2023/01/29 03:06:18;;;;;;;5.55;3.17;;;1.60;99.90;;;;;;10196278;28;20032;-71
2023/01/29 03:11:14;;;;;;;5.00;3.30;;;1.70;99.90;;;;;;10190613;28;20110;-71
2023/01/29 03:16:19;;;;;;;6.78;3.65;;;1.60;99.90;;;;;;10178722;28;20490;-70
2023/01/29 03:37:18;;;;;;;5.25;2.78;;;1.70;99.90;;;;;;10178299;28;20105;-70
2023/01/29 03:42:47;;;;;;;7.65;2.95;;;1.70;99.90;;;;;;10184524;28;20027;-69
2023/01/29 03:48:16;;;;;;;6.15;3.05;;;1.70;99.90;;;;;;10160449;28;20105;-69
2023/01/29 03:53:42;;;;;;;6.88;3.17;;;1.60;99.90;;;;;;10096448;28;20172;-69
2023/01/29 03:58:42;;;;;;;5.72;2.45;;;1.60;99.90;;;;;;10167802;28;20500;-70
2023/01/29 04:03:37;;;;;;;3.72;2.45;;;1.70;99.90;;;;;;10184084;28;20024;-70
2023/01/29 04:08:33;;;;;;;5.40;2.95;;;1.60;99.90;;;;;;10182139;28;20027;-69
2023/01/29 04:13:24;;;;;;;7.70;3.38;;;1.70;99.90;;;;;;10172052;28;20413;-70
2023/01/29 04:18:15;;;;;;;5.47;2.70;;;1.70;99.90;;;;;;10161513;28;20032;-68
2023/01/29 04:23:17;;;;;;;5.38;3.22;;;1.60;99.90;;;;;;10180726;28;20453;-69
2023/01/29 04:28:57;;;;;;;7.50;2.78;;;1.70;99.90;;;;;;10173865;28;20476;-69
2023/01/29 04:34:26;;;;;;;5.60;3.22;;;1.60;99.90;;;;;;10150187;28;20043;-69
2023/01/29 04:39:24;;;;;;;8.45;3.13;;;1.60;99.90;;;;;;10185131;28;20078;-69
2023/01/29 04:44:22;;;;;;;5.32;2.47;;;1.50;99.90;;;;;;10173431;28;20402;-71
2023/01/29 04:49:28;;;;;;;6.57;2.63;;;1.50;99.90;;;;;;10183425;28;20048;-69
2023/01/29 04:54:25;;;;;;;5.70;3.22;;;1.50;99.90;;;;;;10181834;28;20127;-71
2023/01/29 04:59:24;;;;;;;5.78;3.10;;;1.50;99.90;;;;;;10182825;28;20401;-69
2023/01/29 05:04:18;;;;;;;7.22;2.90;;;1.40;99.90;;;;;;10181011;28;20028;-70
2023/01/29 05:09:10;;;;;;;6.32;2.55;;;1.40;99.90;;;;;;10182394;28;20020;-69
2023/01/29 05:14:05;;;;;;;3.92;2.65;;;1.40;99.90;;;;;;10182178;28;20028;-69
2023/01/29 05:18:56;;;;;;;8.18;3.20;;;1.30;99.90;;;;;;10181366;28;20111;-70
2023/01/29 05:24:04;;;;;;;6.93;2.67;;;1.40;99.90;;;;;;10182167;28;20382;-71
2023/01/29 05:28:55;;;;;;;9.55;3.53;;;1.30;99.90;;;;;;10179874;28;20153;-68
2023/01/29 05:33:45;;;;;;;9.60;3.88;;;1.20;99.90;;;;;;10180599;28;20170;-71
2023/01/29 05:38:36;;;;;;;5.00;2.67;;;1.20;99.90;;;;;;10181551;28;20024;-70
2023/01/29 05:43:27;;;;;;;7.75;2.92;;;1.20;99.90;;;;;;10181377;28;20246;-70
2023/01/29 05:48:17;;;;;;;4.80;3.03;;;1.20;99.90;;;;;;10180550;28;20042;-72
2023/01/29 05:53:08;;;;;;;9.68;3.50;;;1.30;99.90;;;;;;10191595;28;20035;-72
2023/01/29 05:57:59;;;;;;;10.85;4.10;;;1.40;99.90;;;;;;10180650;28;20031;-70
2023/01/29 06:02:49;;;;;;;7.68;3.38;;;1.40;99.90;;;;;;10173987;28;20047;-71
2023/01/29 06:07:44;;;;;;;6.88;3.38;;;1.30;99.90;;;;;;10166824;28;20028;-71
2023/01/29 06:12:34;;;;;;;7.30;3.15;;;1.30;99.90;;;;;;10168824;28;20032;-70
2023/01/29 06:17:25;;;;;;;8.80;4.03;;;1.30;99.90;;;;;;10174030;28;20028;-69
2023/01/29 06:22:15;;;;;;;6.28;3.20;;;1.20;99.90;;;;;;10176951;28;20036;-70
2023/01/29 06:27:06;;;;;;;11.55;3.65;;;1.10;99.90;;;;;;10179002;28;20438;-71
2023/01/29 06:31:57;;;;;;;7.07;3.13;;;1.20;99.90;;;;;;10194074;28;20047;-70
2023/01/29 06:36:47;;;;;;;7.20;3.53;;;1.20;99.90;;;;;;10168310;28;20063;-70
2023/01/29 06:41:38;;;;;;;5.13;2.95;;;1.20;99.90;;;;;;10162594;28;20032;-71
2023/01/29 06:46:29;;;;;;;7.70;3.22;;;1.30;99.90;;;;;;10170197;28;20048;-69
2023/01/29 06:51:21;;;;;;;9.43;3.80;;;1.20;99.90;;;;;;10180832;28;20042;-70
2023/01/29 06:56:12;;;;;;;6.63;3.45;;;1.20;99.90;;;;;;10180573;28;20032;-70
2023/01/29 07:01:08;;;;;;;6.60;3.17;;;1.20;99.90;;;;;;10178717;28;20024;-69
2023/01/29 07:05:59;;;;;;;6.35;2.95;;;1.20;99.90;;;;;;10179729;28;20505;-70
2023/01/29 07:10:50;;;;;;;5.53;3.13;;;1.20;99.90;;;;;;10179360;28;20044;-70
2023/01/29 07:15:43;;;;;;;6.50;3.65;;;1.20;99.90;;;;;;10188245;28;20040;-70
2023/01/29 07:20:44;;;;;;;6.03;2.85;;;1.20;99.90;;;;;;10189867;28;20020;-72
2023/01/29 07:25:34;;;;;;;7.68;3.15;;;1.30;99.90;;;;;;10185516;28;20128;-69
2023/01/29 07:30:25;;;;;;;6.95;3.63;;;1.20;99.90;;;;;;10184607;28;20683;-70
2023/01/29 07:35:16;;;;;;;10.20;3.60;;;1.30;99.90;;;;;;10185281;28;20024;-73
2023/01/29 07:40:10;;;;;;;6.25;3.05;;;1.40;99.90;;;;;;10186049;28;20241;-72
2023/01/29 07:45:00;;;;;;;7.30;3.75;;;1.50;99.90;;;;;;10185246;28;20159;-70
2023/01/29 07:49:51;;;;;;;6.75;3.42;;;1.40;99.90;;;;;;10185373;28;20167;-72
2023/01/29 07:54:41;;;;;;;10.93;4.45;;;1.50;99.90;;;;;;10178437;28;20206;-72
2023/01/29 07:59:32;;;;;;;10.23;3.95;;;1.50;99.90;;;;;;10182167;28;20103;-69
2023/01/29 08:04:23;;;;;;;9.10;3.75;;;1.60;99.90;;;;;;10185232;28;20201;-70
2023/01/29 08:09:13;;;;;;;6.05;3.22;;;1.60;99.90;;;;;;10185379;28;20024;-71
2023/01/29 08:14:04;;;;;;;9.45;4.40;;;1.70;99.90;;;;;;10184546;28;20150;-69
2023/01/29 08:18:55;;;;;;;8.85;3.72;;;1.80;99.90;;;;;;10185351;28;20485;-70
2023/01/29 08:23:45;;;;;;;6.28;3.67;;;1.90;99.90;;;;;;10185617;28;20114;-70
2023/01/29 08:28:37;;;;;;;5.25;3.40;;;1.80;99.90;;;;;;10184267;28;20032;-69
2023/01/29 08:33:28;;;;;;;10.25;3.85;;;1.80;99.90;;;;;;10184568;28;20634;-72
2023/01/29 08:38:18;;;;;;;5.80;3.38;;;1.90;99.90;;;;;;10184313;28;20041;-69
2023/01/29 08:43:11;;;;;;;10.02;3.95;;;2.00;99.90;;;;;;10185691;28;20047;-70
2023/01/29 08:48:02;;;;;;;9.10;3.55;;;2.10;99.90;;;;;;10188043;28;20032;-69
2023/01/29 08:52:57;;;;;;;6.68;4.05;;;2.20;99.90;;;;;;10193935;28;20118;-68
2023/01/29 08:57:48;;;;;;;6.60;3.80;;;2.10;99.90;;;;;;10183040;28;20044;-73
2023/01/29 09:02:39;;;;;;;7.72;3.65;;;2.20;99.90;;;;;;10181820;28;20032;-73
2023/01/29 09:07:29;;;;;;;9.20;3.90;;;2.20;99.90;;;;;;10182368;28;20104;-70
2023/01/29 09:12:20;;;;;;;7.97;4.30;;;2.30;99.90;;;;;;10182572;28;20036;-73
2023/01/29 09:17:11;;;;;;;6.30;4.05;;;2.30;99.90;;;;;;10182804;28;20024;-72
2023/01/29 09:22:01;;;;;;;9.63;3.80;;;2.60;99.90;;;;;;10183135;28;20032;-71
2023/01/29 09:26:53;;;;;;;8.15;4.03;;;2.60;99.90;;;;;;10183129;28;20026;-70
2023/01/29 09:31:47;;;;;;;7.13;3.80;;;2.70;99.90;;;;;;10183743;28;20623;-73
2023/01/29 09:36:38;;;;;;;5.75;3.97;;;2.80;99.90;;;;;;10179739;28;20094;-70
2023/01/29 09:41:51;;;;;;;8.77;4.38;;;2.80;99.90;;;;;;10180165;28;20127;-72
2023/01/29 09:46:47;;;;;;;6.90;3.15;;;2.60;99.90;;;;;;10182240;28;20040;-71
2023/01/29 09:51:50;;;;;;;7.35;3.72;;;2.70;99.90;;;;;;10183039;28;20040;-72
2023/01/29 09:56:44;;;;;;;7.03;3.63;;;2.70;99.90;;;;;;10194702;28;20032;-70
2023/01/29 10:01:37;;;;;;;7.47;3.30;;;2.90;99.90;;;;;;10194466;28;20457;-71
2023/01/29 10:06:40;;;;;;;7.80;3.55;;;2.90;99.90;;;;;;10187764;28;20536;-74
2023/01/29 10:11:43;;;;;;;6.18;3.92;;;2.90;99.90;;;;;;10184457;28;20115;-73
2023/01/29 10:17:03;;;;;;;4.88;3.47;;;3.10;99.90;;;;;;10185776;28;20024;-71
2023/01/29 10:22:18;;;;;;;9.30;5.05;;;3.30;99.90;;;;;;10188173;28;20065;-73
2023/01/29 10:27:17;;;;;;;6.32;3.75;;;3.20;99.90;;;;;;10183156;28;20378;-70
2023/01/29 10:32:15;;;;;;;9.07;4.07;;;3.10;99.90;;;;;;10180274;28;20117;-73
2023/01/29 10:37:17;;;;;;;7.15;3.67;;;3.40;99.90;;;;;;10180594;28;20012;-71
2023/01/29 10:42:23;;;;;;;8.55;4.45;;;3.40;99.90;;;;;;10179310;28;20040;-73
2023/01/29 10:47:51;;;;;;;8.95;4.75;;;3.40;99.90;;;;;;10179202;28;20044;-75
2023/01/29 10:53:01;;;;;;;8.80;4.03;;;3.50;99.90;;;;;;10192400;28;20033;-72
2023/01/29 10:58:07;;;;;;;8.13;4.28;;;3.60;99.90;;;;;;10179714;28;20386;-72
2023/01/29 11:03:24;;;;;;;7.10;3.33;;;3.60;99.90;;;;;;10184953;28;20034;-74
2023/01/29 11:08:19;;;;;;;7.60;4.05;;;3.80;99.90;;;;;;10181625;28;20027;-74
2023/01/29 11:13:13;;;;;;;9.52;4.18;;;3.80;99.90;;;;;;10179366;28;20047;-71
2023/01/29 11:18:12;;;;;;;9.50;4.32;;;3.70;99.90;;;;;;10179849;28;20020;-73
2023/01/29 11:23:03;;;;;;;9.77;4.47;;;3.80;99.90;;;;;;10178421;28;20027;-71
2023/01/29 11:27:56;;;;;;;7.75;4.45;;;4.00;99.90;;;;;;10179108;28;20030;-71
2023/01/29 11:33:18;;;;;;;12.27;5.07;;;3.90;99.90;;;;;;10181629;28;20039;-71
2023/01/29 11:38:25;;;;;;;7.65;3.90;;;3.80;99.90;;;;;;10176278;28;20036;-70
2023/01/29 11:43:31;;;;;;;10.52;4.88;;;3.70;99.90;;;;;;10178086;28;20270;-69
2023/01/29 11:48:26;;;;;;;7.55;3.90;;;3.70;99.90;;;;;;10178101;28;20055;-70
2023/01/29 11:53:41;;;;;;;7.10;3.85;;;3.80;99.90;;;;;;10189526;28;20365;-70
2023/01/29 11:58:34;;;;;;;7.38;4.25;;;3.80;99.90;;;;;;10187979;28;20043;-70
2023/01/29 12:03:39;;;;;;;5.63;3.72;;;3.70;99.90;;;;;;10185034;28;20374;-69
2023/01/29 12:08:43;;;;;;;7.30;3.45;;;3.80;99.90;;;;;;10183742;28;20145;-71
2023/01/29 12:13:34;;;;;;;7.18;4.10;;;3.80;99.90;;;;;;10185417;28;20047;-72
2023/01/29 12:18:34;;;;;;;7.60;4.38;;;3.70;99.90;;;;;;10176941;28;20028;-68
2023/01/29 12:23:43;;;;;;;9.40;4.45;;;3.70;99.90;;;;;;10180090;28;20032;-69
2023/01/29 12:28:36;;;;;;;9.80;3.97;;;3.70;99.90;;;;;;10181174;28;20032;-70
2023/01/29 12:33:39;;;;;;;7.90;4.10;;;4.00;99.90;;;;;;10186668;28;20044;-69
2023/01/29 12:38:30;;;;;;;7.55;4.28;;;4.20;99.90;;;;;;10203568;28;20097;-70
2023/01/29 12:43:36;;;;;;;6.43;3.80;;;4.30;99.90;;;;;;10200469;28;20065;-67
2023/01/29 12:48:35;;;;;;;7.23;3.67;;;4.40;99.90;;;;;;10191709;28;20048;-69
2023/01/29 12:53:30;;;;;;;5.80;3.35;;;4.60;99.90;;;;;;10193976;28;20032;-66
2023/01/29 12:58:28;;;;;;;6.32;3.25;;;4.40;99.90;;;;;;10186706;28;20027;-66
2023/01/29 13:03:37;;;;;;;8.27;3.97;;;4.30;99.90;;;;;;10166399;28;20581;-68
2023/01/29 13:09:09;;;;;;;7.20;3.88;;;4.20;99.90;;;;;;10181094;28;20105;-69
2023/01/29 13:14:08;;;;;;;10.48;3.63;;;4.10;99.90;;;;;;10183814;28;20588;-70
2023/01/29 13:19:04;;;;;;;7.18;3.65;;;4.20;99.90;;;;;;10207359;28;20030;-70
2023/01/29 13:24:03;;;;;;;8.40;4.63;;;4.40;99.90;;;;;;10198386;28;20032;-68
2023/01/29 13:28:54;;;;;;;7.30;3.63;;;4.60;99.90;;;;;;10191522;28;20102;-72
2023/01/29 13:34:10;;;;;;;8.35;4.32;;;4.60;99.90;;;;;;10189090;28;20036;-66
2023/01/29 13:39:15;;;;;;;8.13;3.92;;;4.70;99.90;;;;;;10168436;28;20110;-67
2023/01/29 13:44:23;;;;;;;6.75;3.85;;;5.00;99.90;;;;;;10189431;28;20534;-68
2023/01/29 13:49:45;;;;;;;6.97;3.42;;;4.70;99.90;;;;;;10180052;28;20474;-68
2023/01/29 13:54:36;;;;;;;6.75;4.30;;;4.60;99.90;;;;;;10140019;28;20050;-70
2023/01/29 13:59:52;;;;;;;7.20;3.67;;;4.70;99.90;;;;;;10192007;28;20027;-69
2023/01/29 14:04:43;;;;;;;5.28;3.38;;;4.60;99.90;;;;;;10184708;28;20043;-70
2023/01/29 14:10:01;;;;;;;5.22;3.40;;;4.60;99.90;;;;;;10181276;28;20054;-69
2023/01/29 14:15:04;;;;;;;5.32;3.13;;;4.50;99.90;;;;;;10191099;28;20032;-70
2023/01/29 14:20:17;;;;;;;4.88;2.85;;;4.50;99.90;;;;;;10192974;28;20016;-70
2023/01/29 14:25:17;;;;;;;8.80;3.78;;;4.60;99.90;;;;;;10190630;28;20084;-70
2023/01/29 14:30:14;;;;;;;7.15;4.10;;;4.50;99.90;;;;;;10185230;28;20063;-69
2023/01/29 14:35:18;;;;;;;6.15;3.42;;;4.60;99.90;;;;;;10187733;28;20039;-66
2023/01/29 14:40:18;;;;;;;8.73;4.18;;;4.90;99.90;;;;;;10201305;28;20027;-66
2023/01/29 14:45:23;;;;;;;9.55;4.18;;;4.70;99.90;;;;;;10209265;28;20020;-67
2023/01/29 14:50:31;;;;;;;6.65;3.33;;;4.50;99.90;;;;;;10186825;28;20089;-67
2023/01/29 14:55:29;;;;;;;5.43;3.15;;;4.50;99.90;;;;;;10190418;28;20023;-67
2023/01/29 15:00:28;;;;;;;8.25;4.60;;;4.60;99.90;;;;;;10183123;28;20060;-67
2023/01/29 15:05:27;;;;;;;5.15;3.50;;;4.40;99.90;;;;;;10181738;28;20020;-65
2023/01/29 15:10:22;;;;;;;7.57;3.28;;;4.30;99.90;;;;;;10180591;28;20027;-65
2023/01/29 15:15:34;;;;;;;5.43;3.38;;;4.30;99.90;;;;;;10204802;28;20072;-66
2023/01/29 15:20:29;;;;;;;7.20;3.55;;;4.20;99.90;;;;;;10194381;28;20073;-66
2023/01/29 15:25:20;;;;;;;6.57;4.30;;;4.20;99.90;;;;;;10183523;28;20016;-65
2023/01/29 15:30:21;;;;;;;7.40;3.22;;;4.10;99.90;;;;;;10181598;28;20036;-66
2023/01/29 15:35:33;;;;;;;7.65;3.97;;;4.00;99.90;;;;;;10188843;28;20503;-70
2023/01/29 15:40:25;;;;;;;10.40;5.00;;;3.90;99.90;;;;;;10216679;28;20492;-70
2023/01/29 15:45:32;;;;;;;7.53;3.25;;;3.90;99.90;;;;;;10192963;28;20055;-68
2023/01/29 15:50:23;;;;;;;5.70;3.85;;;3.80;99.90;;;;;;10203432;28;20035;-70
2023/01/29 15:55:14;;;;;;;6.15;3.40;;;3.80;99.90;;;;;;10205690;28;20025;-71
2023/01/29 16:00:07;;;;;;;7.80;4.00;;;3.70;99.90;;;;;;10195100;28;20102;-70
2023/01/29 16:04:58;;;;;;;6.85;4.13;;;3.60;99.90;;;;;;10187680;28;20107;-70
2023/01/29 16:09:51;;;;;;;8.40;3.10;;;3.50;99.90;;;;;;10184333;28;20024;-70
2023/01/29 16:14:43;;;;;;;5.75;2.88;;;3.50;99.90;;;;;;10218045;28;20132;-70
2023/01/29 16:19:33;;;;;;;9.98;3.95;;;3.50;99.90;;;;;;10201316;28;20028;-71
2023/01/29 16:24:24;;;;;;;10.50;4.57;;;3.40;99.90;;;;;;10191694;28;20011;-68
2023/01/29 16:29:20;;;;;;;10.13;4.57;;;3.30;99.90;;;;;;10185276;28;20028;-70
2023/01/29 16:34:25;;;;;;;6.80;3.78;;;3.30;99.90;;;;;;10183323;28;20130;-69
2023/01/29 16:39:23;;;;;;;7.88;4.10;;;3.20;99.90;;;;;;10216387;28;20201;-67
2023/01/29 16:44:20;;;;;;;8.60;3.70;;;3.20;99.90;;;;;;10202734;28;20212;-66
2023/01/29 16:49:31;;;;;;;6.18;4.00;;;3.20;99.90;;;;;;10180324;28;20464;-67
2023/01/29 16:54:26;;;;;;;9.43;4.07;;;3.20;99.90;;;;;;10183414;28;20116;-67
2023/01/29 16:59:38;;;;;;;6.05;4.28;;;3.10;99.90;;;;;;10195231;28;20035;-66
2023/01/29 17:04:29;;;;;;;7.10;3.63;;;3.10;99.90;;;;;;10182309;28;20024;-69
2023/01/29 17:09:32;;;;;;;10.60;4.22;;;3.00;99.90;;;;;;10178364;28;20028;-68
2023/01/29 17:14:24;;;;;;;7.53;4.13;;;3.00;99.90;;;;;;10203339;28;20063;-68
2023/01/29 17:19:24;;;;;;;6.00;3.95;;;3.00;99.90;;;;;;10208866;28;20432;-72
2023/01/29 17:24:14;;;;;;;10.23;4.70;;;3.00;99.90;;;;;;10188360;28;20022;-70
2023/01/29 17:29:08;;;;;;;10.23;5.88;;;3.00;99.90;;;;;;10185969;28;20035;-72
2023/01/29 17:33:59;;;;;;;10.27;5.38;;;2.90;99.90;;;;;;10182218;28;20157;-69
2023/01/29 17:38:50;;;;;;;16.00;7.25;;;2.90;99.90;;;;;;10217305;28;20097;-71
2023/01/29 17:43:43;;;;;;;13.82;7.28;;;2.90;99.90;;;;;;10211913;28;20102;-74
2023/01/29 17:48:33;;;;;;;14.20;5.38;;;2.90;99.90;;;;;;10199562;28;20052;-72
2023/01/29 17:53:24;;;;;;;10.80;5.65;;;2.90;99.90;;;;;;10203740;28;20091;-72
2023/01/29 17:58:20;;;;;;;13.57;6.05;;;2.80;99.90;;;;;;10191946;28;20035;-72
2023/01/29 18:03:13;;;;;;;11.25;5.43;;;2.80;99.90;;;;;;10186727;28;20082;-72
2023/01/29 18:08:04;;;;;;;8.55;5.60;;;2.90;99.90;;;;;;10178985;28;20043;-68
2023/01/29 18:12:54;;;;;;;10.45;5.97;;;2.80;99.90;;;;;;10201950;28;20039;-70
2023/01/29 18:17:45;;;;;;;13.10;6.35;;;2.80;99.90;;;;;;10192874;28;20024;-70
2023/01/29 18:22:35;;;;;;;13.55;5.72;;;2.80;99.90;;;;;;10196618;28;20408;-69
2023/01/29 18:27:26;;;;;;;14.45;5.78;;;2.80;99.90;;;;;;10186968;28;20512;-69
2023/01/29 18:32:17;;;;;;;9.50;5.68;;;2.70;99.90;;;;;;10191142;28;20478;-74
2023/01/29 18:37:14;;;;;;;13.75;5.47;;;2.70;99.90;;;;;;10191770;28;20111;-72
2023/01/29 18:42:05;;;;;;;12.57;5.68;;;2.60;99.90;;;;;;10200125;28;20039;-74
2023/01/29 18:46:55;;;;;;;15.70;5.80;;;2.60;99.90;;;;;;10204296;28;20358;-76
2023/01/29 18:51:46;;;;;;;12.10;6.03;;;2.60;99.90;;;;;;10146018;22;20060;-61
2023/01/29 18:56:37;;;;;;;11.93;5.47;;;2.60;99.90;;;;;;10084421;28;20112;-65
2023/01/29 19:01:27;;;;;;;11.77;4.90;;;2.60;99.90;;;;;;10074630;28;20044;-63
2023/01/29 19:06:21;;;;;;;13.93;5.30;;;2.50;99.90;;;;;;10083031;28;20113;-63
2023/01/29 19:11:12;;;;;;;13.55;6.05;;;2.50;99.90;;;;;;10099538;28;20116;-62
2023/01/29 19:16:12;;;;;;;11.02;6.00;;;2.40;99.90;;;;;;10099505;28;20025;-60
2023/01/29 19:21:12;;;;;;;12.98;5.68;;;2.40;99.90;;;;;;10084745;28;20395;-61
2023/01/29 19:26:03;;;;;;;11.18;6.10;;;2.40;99.90;;;;;;10072103;28;20018;-58
2023/01/29 19:30:58;;;;;;;10.63;5.70;;;2.40;99.90;;;;;;10086376;28;20162;-59
2023/01/29 19:35:48;;;;;;;12.77;6.72;;;2.30;99.90;;;;;;10098599;28;20029;-56
2023/01/29 19:40:39;;;;;;;9.63;6.35;;;2.20;99.90;;;;;;10097611;28;20025;-58
2023/01/29 19:45:30;;;;;;;16.45;8.05;;;2.20;99.90;;;;;;10091439;28;20300;-53
2023/01/29 19:50:21;;;;;;;187.52;70.00;;;2.20;99.90;;;;;;10085844;28;20144;-56
2023/01/29 19:55:12;;;;;;;44.70;21.92;;;2.40;99.90;;;;;;10108031;28;20031;-65
2023/01/29 20:00:06;;;;;;;19.33;10.57;;;2.30;99.90;;;;;;10099056;28;20027;-64
2023/01/29 20:04:59;;;;;;;16.30;9.50;;;2.30;99.90;;;;;;10098146;28;20032;-64
2023/01/29 20:09:49;;;;;;;20.20;9.00;;;2.30;99.90;;;;;;10092521;28;20025;-65
2023/01/29 20:14:47;;;;;;;25.58;11.55;;;2.20;99.90;;;;;;10078977;28;20038;-65
2023/01/29 20:19:38;;;;;;;18.35;7.82;;;2.10;99.90;;;;;;10080919;28;20025;-63
2023/01/29 20:24:30;;;;;;;19.38;8.57;;;2.20;99.90;;;;;;10096868;28;20017;-68
2023/01/29 20:29:21;;;;;;;15.07;7.38;;;2.10;99.90;;;;;;10093858;28;20476;-69
2023/01/29 20:34:12;;;;;;;14.13;7.57;;;2.10;99.90;;;;;;10084359;28;20045;-67
2023/01/29 20:39:02;;;;;;;13.73;6.85;;;2.10;99.90;;;;;;10078305;28;20021;-68
2023/01/29 20:43:53;;;;;;;19.08;9.13;;;2.10;99.90;;;;;;10056995;28;20025;-68
2023/01/29 20:48:44;;;;;;;17.45;8.50;;;2.10;99.90;;;;;;10091798;28;20057;-67
2023/01/29 20:53:35;;;;;;;16.42;7.93;;;2.00;99.90;;;;;;10094347;28;20025;-65
2023/01/29 20:58:26;;;;;;;15.57;9.25;;;2.00;99.90;;;;;;10099197;28;20059;-65
2023/01/29 21:03:16;;;;;;;17.77;8.43;;;2.00;99.90;;;;;;10099642;28;20032;-65
2023/01/29 21:08:07;;;;;;;17.52;8.20;;;1.90;99.90;;;;;;10090480;28;20078;-67
2023/01/29 21:12:58;;;;;;;13.70;7.85;;;1.90;99.90;;;;;;10084879;28;20520;-65
2023/01/29 21:17:48;;;;;;;17.95;7.63;;;1.90;99.90;;;;;;10092871;28;20533;-65
2023/01/29 21:22:42;;;;;;;16.52;8.32;;;1.90;99.90;;;;;;10076361;28;20522;-63
2023/01/29 21:27:33;;;;;;;19.75;8.98;;;1.80;99.90;;;;;;10089513;28;20032;-66
2023/01/29 21:32:23;;;;;;;15.05;8.02;;;1.80;99.90;;;;;;10088507;28;20120;-64
2023/01/29 21:37:14;;;;;;;15.95;7.10;;;1.70;99.90;;;;;;10086346;28;20077;-68
2023/01/29 21:47:14;;;;;;;19.25;7.68;;;1.70;99.90;;;;;;10088028;28;20040;-69
2023/01/29 21:52:05;;;;;;;17.13;8.23;;;1.70;99.90;;;;;;10079183;28;20056;-70
2023/01/29 21:56:56;;;;;;;13.60;7.38;;;1.60;99.90;;;;;;10088153;28;20155;-67
2023/01/29 22:01:46;;;;;;;14.57;7.57;;;1.60;99.90;;;;;;10091817;28;20037;-66
2023/01/29 22:06:37;;;;;;;11.15;6.63;;;1.50;99.90;;;;;;10090028;28;20032;-73
2023/01/29 22:11:28;;;;;;;14.15;6.93;;;1.60;99.90;;;;;;10086275;28;20120;-68
2023/01/29 22:16:18;;;;;;;13.07;6.35;;;1.60;99.90;;;;;;10092562;28;20108;-65
2023/01/29 22:21:09;;;;;;;15.07;6.97;;;1.50;99.90;;;;;;10072181;28;20032;-67
2023/01/29 22:26:05;;;;;;;11.57;5.88;;;1.50;99.90;;;;;;10078078;28;20020;-68
2023/01/29 22:31:01;;;;;;;68.55;24.80;;;1.60;99.90;;;;;;10059602;28;20380;-68
2023/01/29 22:35:55;;;;;;;96.43;37.07;;;1.50;99.90;;;;;;10093766;28;20073;-71
2023/01/29 22:40:53;;;;;;;29.58;14.32;;;1.80;99.90;;;;;;10098848;28;20055;-68
2023/01/29 22:45:44;;;;;;;18.00;6.75;;;1.60;99.90;;;;;;10087159;28;20542;-71
2023/01/29 22:50:34;;;;;;;15.25;7.38;;;1.60;99.90;;;;;;10105730;28;20041;-68
2023/01/29 22:55:25;;;;;;;13.13;7.03;;;1.60;99.90;;;;;;10071572;28;20044;-68
2023/01/29 23:00:16;;;;;;;16.42;7.75;;;1.50;99.90;;;;;;10067971;28;20433;-66
2023/01/29 23:05:07;;;;;;;17.90;7.78;;;1.40;99.90;;;;;;10095860;28;20097;-69
2023/01/29 23:09:58;;;;;;;12.70;7.40;;;1.40;99.90;;;;;;10098856;28;20116;-68
2023/01/29 23:14:49;;;;;;;13.27;7.45;;;1.30;99.90;;;;;;10085605;28;20028;-70
2023/01/29 23:19:39;;;;;;;16.75;7.13;;;1.30;99.90;;;;;;10059880;28;20049;-70
2023/01/29 23:24:30;;;;;;;13.20;7.20;;;1.20;99.90;;;;;;10061552;28;20057;-68
2023/01/29 23:29:21;;;;;;;11.45;6.07;;;1.10;99.90;;;;;;10059113;28;20109;-70
2023/01/29 23:34:12;;;;;;;13.95;6.95;;;1.10;99.90;;;;;;10095434;28;20044;-68
2023/01/29 23:39:03;;;;;;;12.95;7.05;;;1.10;99.90;;;;;;10098604;28;20467;-69
2023/01/29 23:43:54;;;;;;;11.93;6.20;;;1.00;99.90;;;;;;10097900;28;20107;-71
2023/01/29 23:48:44;;;;;;;10.13;5.25;;;1.10;99.90;;;;;;10106750;28;20495;-68
2023/01/29 23:53:35;;;;;;;10.20;4.78;;;1.00;99.90;;;;;;10109070;28;20032;-69
2023/01/29 23:58:28;;;;;;;11.85;5.72;;;1.00;99.90;;;;;;10082222;28;20057;-70
